Dillon, CO

3:01 AM MDT on October 01, 2014 (GMT -0600)
Last Chance | Change Station
CLOSE
Current Station
Personal Weather Station
Location: Keystone, CO
Elevation: 9262 ft
Nearby Weather Stations

Elev 9262 ft 39.60 °N, 105.98 °W | Updated 22 seconds ago

Partly Cloudy
Partly Cloudy
32.4 °F
Feels Like 32 °F
N
1.0
Wind Variable Wind from East
Gusts 3.0 mph

Today
High -- | Low -- °F
--% Chance of Precip.
Yesterday
High -- | Low -- °F
Precip. -- in
7:00 AM 6:46 PM
Waxing Crescent, 45% visible
Pressure 29.83 in
Visibility 10.0 miles
Clouds Mostly Cloudy 2500 ft
Overcast 3100 ft
Windchill 32 °F
Dew Point 31 °F
Humidity 96%
Rainfall 0.00 in
Snow Depth Not available.
UV 0 out of 12
Pollen 3.50 out of 12
Air Quality Not available.
Flu Activity Not available.
METAR KLXV 300753Z AUTO 32009G15KT 290V350 10SM BKN025 OVC031 02/M03 A3010 RMK AO2 SLP100 T00171033

More Conditions Fewer Conditions

Pressure 29.83 in
Visibility 10.0 miles
Clouds Mostly Cloudy 2500 ft
Overcast 3100 ft
Windchill 32 °F
Dew Point 31 °F
Humidity 96%
Rainfall 0.00 in
Snow Depth Not available.
UV 0 out of 12
Pollen 3.50 out of 12
Air Quality Not available.
Flu Activity Not available.
METAR KLXV 300753Z AUTO 32009G15KT 290V350 10SM BKN025 OVC031 02/M03 A3010 RMK AO2 SLP100 T00171033

More Conditions Fewer Conditions

10-Day Weather Forecast

Almanac

Astronomy

Oct. 01, 2014 Rise Set
Actual Time 7:00 AM MDT 6:46 PM MDT
Civil Twilight 6:33 AM MDT 7:13 PM MDT
Nautical Twilight 6:02 AM MDT 7:44 PM MDT
Astronomical Twilight 5:30 AM MDT 8:15 PM MDT
Moon 2:02 PM MDT No Moon Set
Length of Visible Light 12h 39m
Length of Day
11h 46m
Tomorrow will be 2m 34s shorter.
Waxing Crescent, 45% of the Moon is Illuminated
Today
Waxing Crescent
Oct 1
First Quarter
Oct 8
Full
Oct 15
Last Quarter
Oct 23
New

Today's Extremes

State Highs State Lows

Community

WunderPhotos

Upload Photos

1,757,902 photos uploaded!

Nearby

Snow Depth

Station Depth Elevation
North Lost Trail 1 in 9200 ft
Brumley 0 in 10600 ft
Berthoud Summit 0 in 11300 ft
Phantom Valley 0 in 9030 ft
Copeland Lake 1 in 8600 ft

Earthquake Activity

City Distance Mag. Time & Date
No recent earthquake activity has been reported nearby.
Minimum magnitude displayed is 2.5.

Coastal Water Temperatures

Place Temperature
No Stations Reporting

Nearby Weather Stations